Portada
METAR-TAF:

METAR-TAF

Aeropuertos :

Yida, Arabia Saudita

Aeropuerto Internacional Rey Abdulaziz

latitud: 21-42N, longitud: 039-11E, altitud: 15 m

Observación

El informe se hizo hace 28 minutos, a las 20:00 UTC
Viento 10 kt del este-noreste
Temperatura 26°C
Humedad 23%
Presión 1016 hPa
Visibilidad 10 km o más
sin nubes por debajo de 1500 m y sin presencia de cumulonimbus.

METAR: OEJN 162000Z 07010KT CAVOK 26/03 Q1016 NOSIG

Hora: 23:28 (20:28 UTC)

Pronóstico

El informe se hizo hace 3 horas y 28 minutos, a las 17:00 UTC
Pronóstico válido del 16 a las 18 UTC al 17 a las 24 UTC
Viento 10 kt del este con ráfagas de 20 kt
Visibilidad: 7000 m
Escasas nubes a una altura de 4000 ft
Temporalmente
del 16 a las 18 UTC al 17 a las 12 UTC
Visibilidad: 4000 m
Polvo extendido, Ventisca alta de polvo

TAF: OEJN 161700Z 1618/1724 08010G20KT 7000 FEW040 TEMPO 1618/1712 4000 DU BLDU

Observaciones y pronósticos meteorológicos de más de 4000 aeropuertos (mensajes METAR y TAF).

Los puntos amarillos y rojos representan las estaciones disponibles.

Ponga el ratón en el punto deseado para ver el nombre de la estación.

Haga clic para ver las observaciones y los pronósticos meteorológicos.

Para cambiar el mapa : haga clic en los botones verdes con una cruz de color negro para hacer un zoom, en el botón verde con un guión para alejar o en las flechas verdes para mapas adyacentes.


METAR-TAF: